Time;durP1;ratioP1;P1;durP2;ratioP2;P2;SDS_P1;SDS_P2;PMS_P1;PMS_P2;Temp;Humidity;BMP_temperature;BMP_pressure;BME280_temperature;BME280_humidity;BME280_pressure;Samples;Min_cycle;Max_cycle;Signal;HPM_P1;HPM_P2
2021/11/05 00:00:00;;;;;;;74.27;50.08;;;;;;;12.25;86.85;100568.45;1714946;81;21017;-66
2021/11/05 00:02:29;;;;;;;90.62;61.30;;;;;;;12.30;87.03;100576.87;1725887;82;21864;-66
2021/11/05 00:04:56;;;;;;;50.78;35.00;;;;;;;12.38;87.26;100577.56;1728023;81;20997;-67
2021/11/05 00:07:23;;;;;;;41.77;28.35;;;;;;;12.45;87.54;100574.27;1723691;82;20930;-66
2021/11/05 00:09:49;;;;;;;40.55;27.42;;;;;;;12.51;87.67;100561.81;1725727;82;21013;-65
2021/11/05 00:12:16;;;;;;;33.05;25.25;;;;;;;12.56;87.78;100559.63;1714902;82;21499;-66
2021/11/05 00:14:44;;;;;;;33.95;25.75;;;;;;;12.61;87.99;100557.90;1714594;82;23645;-65
2021/11/05 00:17:11;;;;;;;34.05;23.73;;;;;;;12.65;88.01;100547.90;1722033;82;21344;-65
2021/11/05 00:19:38;;;;;;;31.35;23.18;;;;;;;12.68;88.01;100556.42;1727420;81;21495;-66
2021/11/05 00:22:07;;;;;;;29.95;22.58;;;;;;;12.71;88.06;100555.31;1735679;81;21091;-66
2021/11/05 00:24:34;;;;;;;31.93;22.60;;;;;;;12.73;88.08;100550.22;1709173;81;21145;-66
2021/11/05 00:27:01;;;;;;;31.57;22.17;;;;;;;12.76;88.17;100543.84;1722793;81;22653;-66
2021/11/05 00:29:27;;;;;;;31.68;22.37;;;;;;;12.80;88.20;100541.27;1723757;81;21484;-65
2021/11/05 00:31:54;;;;;;;30.62;22.20;;;;;;;12.80;88.21;100542.11;1772008;80;21033;-65
2021/11/05 00:34:21;;;;;;;28.70;21.60;;;;;;;12.83;88.24;100526.41;1748524;80;20954;-65
2021/11/05 00:36:49;;;;;;;30.52;21.27;;;;;;;12.84;88.22;100527.64;1734522;81;21053;-64
2021/11/05 00:39:16;;;;;;;25.80;19.60;;;;;;;12.85;88.25;100523.17;1734931;81;22392;-65
2021/11/05 00:41:42;;;;;;;31.42;21.20;;;;;;;12.85;88.24;100514.73;1729428;81;20933;-64
2021/11/05 00:44:09;;;;;;;26.00;21.00;;;;;;;12.87;88.23;100519.89;1724136;81;20965;-65
2021/11/05 00:46:35;;;;;;;28.75;20.10;;;;;;;12.89;88.23;100515.30;1713903;82;21010;-64
2021/11/05 00:49:02;;;;;;;25.40;19.25;;;;;;;12.88;88.21;100517.59;1707838;82;20949;-65
2021/11/05 00:51:29;;;;;;;21.90;17.27;;;;;;;12.92;88.21;100510.20;1731900;81;21818;-65
2021/11/05 00:53:55;;;;;;;24.35;19.23;;;;;;;12.93;88.19;100505.25;1706591;82;21026;-65
2021/11/05 00:56:22;;;;;;;23.50;18.05;;;;;;;12.94;88.20;100503.81;1727382;82;21026;-65
2021/11/05 00:58:49;;;;;;;22.07;16.95;;;;;;;12.95;88.18;100513.94;1702954;82;21047;-66
2021/11/05 01:01:15;;;;;;;23.90;19.30;;;;;;;12.97;88.16;100510.66;1697255;83;21092;-65
2021/11/05 01:03:42;;;;;;;24.63;17.92;;;;;;;12.97;88.15;100512.82;1646194;84;21838;-64
2021/11/05 01:06:08;;;;;;;24.02;18.60;;;;;;;12.99;88.09;100513.52;1676270;83;21062;-65
2021/11/05 01:08:35;;;;;;;26.82;19.62;;;;;;;13.00;88.02;100506.41;1713804;82;21053;-64
2021/11/05 01:11:02;;;;;;;26.30;18.23;;;;;;;13.02;88.03;100497.81;1702220;82;21020;-64
2021/11/05 01:13:30;;;;;;;22.25;17.42;;;;;;;13.02;87.97;100500.47;1715030;81;21080;-66
2021/11/05 01:15:57;;;;;;;22.32;17.50;;;;;;;13.03;87.95;100499.03;1711176;82;21909;-65
2021/11/05 01:18:23;;;;;;;27.00;18.57;;;;;;;13.05;87.93;100495.76;1713100;81;21076;-65
2021/11/05 01:20:50;;;;;;;20.97;17.17;;;;;;;13.08;87.91;100506.58;1705932;82;20996;-65
2021/11/05 01:23:17;;;;;;;24.35;18.20;;;;;;;13.09;87.83;100515.72;1714903;82;21005;-65
2021/11/05 01:25:45;;;;;;;25.05;17.55;;;;;;;13.12;87.79;100522.55;1701564;82;21476;-66
2021/11/05 01:28:11;;;;;;;19.85;16.23;;;;;;;13.15;87.74;100513.86;1694539;82;22495;-65
2021/11/05 01:30:38;;;;;;;22.13;17.42;;;;;;;13.18;87.62;100511.42;1711153;82;21492;-65
2021/11/05 01:33:09;;;;;;;23.05;17.57;;;;;;;13.21;87.51;100503.70;1707818;82;21127;-65
2021/11/05 01:35:39;;;;;;;24.90;17.98;;;;;;;13.23;87.42;100501.78;1682779;83;21021;-65
2021/11/05 01:38:08;;;;;;;22.10;17.92;;;;;;;13.24;87.32;100494.17;1718902;80;21463;-66
2021/11/05 01:40:37;;;;;;;19.82;16.40;;;;;;;13.27;87.23;100506.66;1726101;80;22498;-64
2021/11/05 01:43:04;;;;;;;21.77;16.12;;;;;;;13.28;87.10;100497.73;1745201;81;20929;-64
2021/11/05 01:45:35;;;;;;;19.52;16.23;;;;;;;13.28;86.98;100497.73;1742702;80;20954;-65
2021/11/05 01:48:04;;;;;;;20.50;16.17;;;;;;;13.30;86.90;100498.91;1740691;81;20929;-66
2021/11/05 01:50:31;;;;;;;21.50;16.05;;;;;;;13.30;86.76;100490.47;1766633;80;20929;-65
2021/11/05 01:53:01;;;;;;;19.67;16.23;;;;;;;13.30;86.70;100487.81;1739429;81;21413;-65
2021/11/05 01:55:29;;;;;;;19.10;15.90;;;;;;;13.32;86.63;100485.05;1734416;80;20945;-65
2021/11/05 01:57:55;;;;;;;19.75;15.78;;;;;;;13.32;86.53;100477.09;1738173;81;20997;-65
2021/11/05 02:00:24;;;;;;;21.00;15.93;;;;;;;13.30;86.47;100469.24;1743459;80;21072;-65
2021/11/05 02:02:51;;;;;;;21.90;16.27;;;;;;;13.32;86.43;100480.58;1736370;80;21071;-65
2021/11/05 02:05:17;;;;;;;22.75;15.65;;;;;;;13.33;86.40;100480.09;1743305;80;21795;-67
2021/11/05 02:07:51;;;;;;;20.65;15.72;;;;;;;13.33;86.35;100482.75;1738194;80;21049;-66
2021/11/05 02:10:23;;;;;;;20.40;15.83;;;;;;;13.32;86.30;100478.42;1741036;80;21037;-65
2021/11/05 02:12:50;;;;;;;19.90;15.60;;;;;;;13.33;86.32;100474.78;1738526;80;21001;-65
2021/11/05 02:15:17;;;;;;;18.73;15.63;;;;;;;13.33;86.28;100474.30;1739192;80;21442;-66
2021/11/05 02:17:45;;;;;;;19.00;15.58;;;;;;;13.33;86.27;100470.81;1742532;81;22482;-65
2021/11/05 02:20:13;;;;;;;19.98;15.45;;;;;;;13.33;86.24;100474.30;1718161;81;21456;-65
2021/11/05 02:22:40;;;;;;;18.67;14.83;;;;;;;13.33;86.26;100486.72;1730559;81;21430;-65
2021/11/05 02:25:08;;;;;;;21.17;15.93;;;;;;;13.32;86.30;100489.03;1732643;81;21028;-65
2021/11/05 02:27:36;;;;;;;19.30;14.10;;;;;;;13.32;86.29;100493.01;1717777;80;20894;-65
2021/11/05 02:30:05;;;;;;;18.87;14.93;;;;;;;13.32;86.31;100491.19;1680533;83;21789;-65
2021/11/05 02:32:31;;;;;;;17.57;14.30;;;;;;;13.33;86.27;100493.36;1664802;83;21414;-65
2021/11/05 02:34:58;;;;;;;17.70;14.50;;;;;;;13.33;86.32;100490.70;1665027;83;21480;-65
2021/11/05 02:37:26;;;;;;;17.65;13.60;;;;;;;13.32;86.32;100481.91;1779287;78;21555;-65
2021/11/05 02:39:53;;;;;;;18.67;14.55;;;;;;;13.32;86.35;100480.58;1755029;80;20936;-65
2021/11/05 02:42:20;;;;;;;17.25;13.88;;;;;;;13.30;86.34;100477.20;1783436;78;21821;-65
2021/11/05 02:44:47;;;;;;;20.02;14.07;;;;;;;13.31;86.42;100490.81;1782076;78;21008;-65
2021/11/05 02:47:24;;;;;;;17.17;13.35;;;;;;;13.31;86.44;100488.65;1778479;79;21131;-65
2021/11/05 02:49:54;;;;;;;17.20;13.08;;;;;;;13.32;86.47;100486.38;1766369;79;21398;-65
2021/11/05 02:52:21;;;;;;;16.12;13.10;;;;;;;13.32;86.48;100485.05;1779259;79;21016;-65
2021/11/05 02:54:48;;;;;;;20.27;14.73;;;;;;;13.33;86.49;100485.40;1777590;79;21787;-65
2021/11/05 02:57:14;;;;;;;17.15;13.80;;;;;;;13.32;86.49;100490.36;1778030;79;21036;-66
2021/11/05 02:59:42;;;;;;;19.05;13.85;;;;;;;13.32;86.51;100489.03;1770603;78;21114;-66
2021/11/05 03:02:10;;;;;;;18.25;13.80;;;;;;;13.30;86.53;100483.83;1739475;80;21416;-65
2021/11/05 03:04:37;;;;;;;16.23;13.40;;;;;;;13.32;86.51;100495.66;1716053;81;21418;-65
2021/11/05 03:07:08;;;;;;;17.37;13.90;;;;;;;13.32;86.50;100491.69;1718829;81;21020;-65
2021/11/05 03:09:38;;;;;;;17.12;12.95;;;;;;;13.30;86.52;100484.32;1748118;80;21060;-65
2021/11/05 03:12:07;;;;;;;18.35;13.22;;;;;;;13.29;86.56;100483.97;1774733;80;21036;-65
2021/11/05 03:14:34;;;;;;;17.55;13.30;;;;;;;13.29;86.63;100476.02;1758392;79;21381;-65
2021/11/05 03:17:02;;;;;;;17.60;13.72;;;;;;;13.29;86.67;100476.02;1716106;81;20956;-65
2021/11/05 03:19:30;;;;;;;17.07;13.28;;;;;;;13.29;86.69;100468.06;1714173;82;21787;-66
2021/11/05 03:21:57;;;;;;;17.82;13.22;;;;;;;13.29;86.70;100466.73;1774080;80;21021;-65
2021/11/05 03:24:25;;;;;;;19.40;13.20;;;;;;;13.29;86.75;100462.75;1713100;81;20922;-64
2021/11/05 03:26:52;;;;;;;17.70;13.13;;;;;;;13.28;86.76;100463.24;1723332;80;21122;-65
2021/11/05 03:29:19;;;;;;;16.62;14.18;;;;;;;13.28;86.79;100465.89;1713197;82;20993;-64
2021/11/05 03:31:45;;;;;;;18.50;13.88;;;;;;;13.28;86.82;100459.75;1719307;81;21813;-65
2021/11/05 03:34:12;;;;;;;16.93;13.80;;;;;;;13.28;86.89;100458.42;1714806;81;20986;-65
2021/11/05 03:36:38;;;;;;;19.87;14.00;;;;;;;13.28;86.93;100459.75;1736781;80;21070;-65
2021/11/05 03:39:05;;;;;;;19.87;13.60;;;;;;;13.28;86.95;100459.27;1760168;80;21020;-65
2021/11/05 03:41:32;;;;;;;18.37;13.83;;;;;;;13.27;86.97;100455.42;1730505;80;21433;-65
2021/11/05 03:43:59;;;;;;;18.50;13.30;;;;;;;13.29;87.01;100459.61;1712043;81;22720;-64
2021/11/05 03:46:27;;;;;;;16.90;13.30;;;;;;;13.29;87.03;100456.95;1719582;82;20945;-65
2021/11/05 03:48:54;;;;;;;20.62;14.15;;;;;;;13.30;87.00;100469.73;1712349;82;20982;-65
2021/11/05 03:51:21;;;;;;;18.77;13.60;;;;;;;13.31;87.04;100470.91;1720910;81;20949;-65
2021/11/05 03:53:47;;;;;;;16.48;12.93;;;;;;;13.32;87.06;100479.25;1711255;81;21096;-65
2021/11/05 03:56:14;;;;;;;18.17;12.93;;;;;;;13.34;87.08;100483.09;1722817;82;21731;-64
2021/11/05 03:58:41;;;;;;;18.75;12.45;;;;;;;13.35;87.08;100485.60;1710575;81;20989;-65
2021/11/05 04:01:07;;;;;;;17.92;12.13;;;;;;;13.37;87.05;100482.81;1696704;82;20998;-65
2021/11/05 04:03:36;;;;;;;18.23;12.80;;;;;;;13.37;87.07;100479.66;1717279;82;21645;-65
2021/11/05 04:06:02;;;;;;;16.73;12.40;;;;;;;13.37;87.07;100477.02;1715710;82;20942;-65
2021/11/05 04:08:29;;;;;;;15.68;12.60;;;;;;;13.38;87.08;100477.36;1724897;82;22703;-64
2021/11/05 04:10:57;;;;;;;18.52;12.43;;;;;;;13.39;87.09;100478.20;1710989;81;20944;-66
2021/11/05 04:13:26;;;;;;;18.17;13.03;;;;;;;13.39;87.09;100479.03;1725784;81;21009;-64
2021/11/05 04:15:54;;;;;;;16.70;12.63;;;;;;;13.39;87.18;100471.08;1728695;81;20978;-65
2021/11/05 04:18:20;;;;;;;15.70;12.58;;;;;;;13.41;87.18;100481.55;1721260;81;21071;-65
2021/11/05 04:20:48;;;;;;;16.12;11.97;;;;;;;13.41;87.24;100477.11;1722106;82;21817;-64
2021/11/05 04:23:17;;;;;;;16.75;12.55;;;;;;;13.42;87.27;100468.17;1714652;81;21045;-64
2021/11/05 04:25:45;;;;;;;18.27;12.70;;;;;;;13.43;87.32;100461.88;1732721;80;20969;-65
2021/11/05 04:28:13;;;;;;;23.40;17.17;;;;;;;13.42;87.28;100456.72;1719470;81;20969;-65
2021/11/05 04:30:39;;;;;;;21.70;16.62;;;;;;;13.42;87.30;100458.05;1724159;81;20950;-65
2021/11/05 04:33:07;;;;;;;20.55;14.15;;;;;;;13.42;87.31;100460.70;1703279;81;21810;-69
2021/11/05 04:35:33;;;;;;;17.30;13.60;;;;;;;13.41;87.40;100463.84;1736201;80;20946;-67
2021/11/05 04:38:00;;;;;;;15.43;12.30;;;;;;;13.43;87.48;100465.03;1732735;80;20959;-66
2021/11/05 04:40:27;;;;;;;17.98;12.68;;;;;;;13.43;87.51;100463.20;1712597;81;21069;-65
2021/11/05 04:42:53;;;;;;;17.48;12.88;;;;;;;13.44;87.55;100460.06;1737087;81;20956;-66
2021/11/05 04:45:20;;;;;;;16.27;12.88;;;;;;;13.45;87.60;100465.72;1716110;81;21777;-65
2021/11/05 04:47:46;;;;;;;19.32;12.93;;;;;;;13.45;87.63;100475.84;1738867;80;20969;-65
2021/11/05 04:50:12;;;;;;;21.55;13.00;;;;;;;13.46;87.70;100470.88;1751425;80;21013;-67
2021/11/05 04:52:39;;;;;;;17.05;12.80;;;;;;;13.48;87.70;100475.21;1754483;80;20937;-66
2021/11/05 04:55:07;;;;;;;18.48;13.00;;;;;;;13.48;87.72;100490.64;1751594;80;21012;-64
2021/11/05 04:57:35;;;;;;;18.25;13.88;;;;;;;13.49;87.75;100490.15;1781791;79;21938;-65
2021/11/05 05:00:05;;;;;;;19.75;13.30;;;;;;;13.48;87.82;100490.64;1771808;80;20950;-68
2021/11/05 05:02:33;;;;;;;18.52;14.35;;;;;;;13.49;87.79;100494.97;1772856;78;21096;-68
2021/11/05 05:05:02;;;;;;;18.65;13.70;;;;;;;13.49;87.82;100491.48;1774960;79;20996;-67
2021/11/05 05:07:28;;;;;;;18.82;13.62;;;;;;;13.49;87.84;100498.11;1776332;79;21135;-69
2021/11/05 05:09:55;;;;;;;20.77;14.00;;;;;;;13.48;87.90;100502.58;1776653;79;21821;-70
2021/11/05 05:12:21;;;;;;;19.42;14.93;;;;;;;13.48;87.95;100490.64;1767103;80;21045;-69
2021/11/05 05:14:48;;;;;;;18.17;14.15;;;;;;;13.48;88.02;100501.25;1730910;80;21076;-70
2021/11/05 05:17:14;;;;;;;18.65;14.38;;;;;;;13.48;88.12;100496.44;1743778;81;21415;-68
2021/11/05 05:19:42;;;;;;;20.60;14.68;;;;;;;13.47;88.11;100490.30;1740897;82;20993;-68
2021/11/05 05:22:08;;;;;;;22.40;14.63;;;;;;;13.48;88.21;100507.05;1726529;81;21816;-67
2021/11/05 05:24:37;;;;;;;21.00;14.47;;;;;;;13.45;88.27;100495.74;1732899;82;21479;-68
2021/11/05 05:27:04;;;;;;;20.12;14.80;;;;;;;13.47;88.35;100495.60;1734329;81;21041;-67
2021/11/05 05:29:30;;;;;;;23.20;16.30;;;;;;;13.47;88.37;100491.63;1725581;81;20973;-67
2021/11/05 05:31:57;;;;;;;20.32;15.03;;;;;;;13.47;88.40;100500.91;1740769;80;21008;-69
2021/11/05 05:34:23;;;;;;;21.52;16.05;;;;;;;13.48;88.47;100505.23;1773062;80;21833;-68
2021/11/05 05:36:49;;;;;;;19.90;15.30;;;;;;;13.48;88.50;100498.60;1747401;80;20936;-68
2021/11/05 05:39:16;;;;;;;22.93;16.27;;;;;;;13.49;88.56;100502.93;1728275;82;21053;-68
2021/11/05 05:41:43;;;;;;;24.02;16.82;;;;;;;13.50;88.64;100499.78;1733904;82;21016;-68
2021/11/05 05:44:09;;;;;;;20.27;15.45;;;;;;;13.49;88.71;100496.30;1734611;82;20961;-68
2021/11/05 05:46:36;;;;;;;22.98;16.48;;;;;;;13.51;88.71;100501.45;1733540;82;21845;-68
2021/11/05 05:49:03;;;;;;;25.40;18.27;;;;;;;13.50;88.76;100483.38;1728174;82;20946;-68
2021/11/05 05:51:33;;;;;;;25.68;17.15;;;;;;;13.52;88.77;100481.94;1733577;81;21451;-68
2021/11/05 05:53:58;;;;;;;25.17;16.27;;;;;;;13.52;88.82;100480.61;1719123;83;21008;-68
2021/11/05 05:56:25;;;;;;;25.35;17.35;;;;;;;13.54;88.83;100482.14;1737452;80;21048;-69
2021/11/05 05:58:53;;;;;;;23.27;16.60;;;;;;;13.56;88.85;100490.80;1740385;81;21819;-69
2021/11/05 06:01:19;;;;;;;24.57;16.95;;;;;;;13.59;88.85;100487.02;1736358;80;22197;-68
2021/11/05 06:03:46;;;;;;;22.10;16.00;;;;;;;13.61;88.82;100487.74;1734917;82;21006;-68
2021/11/05 06:06:13;;;;;;;23.42;15.85;;;;;;;13.62;88.77;100488.93;1731680;82;20961;-68
2021/11/05 06:08:40;;;;;;;20.55;16.20;;;;;;;13.64;88.71;100480.82;1726117;82;21123;-66
2021/11/05 06:11:09;;;;;;;23.05;16.57;;;;;;;13.66;88.66;100494.78;1723367;81;21814;-67
2021/11/05 06:13:37;;;;;;;23.32;15.95;;;;;;;13.66;88.62;100498.28;1732858;81;21009;-65
2021/11/05 06:16:06;;;;;;;22.80;16.42;;;;;;;13.68;88.56;100506.94;1740169;80;20941;-67
2021/11/05 06:18:33;;;;;;;22.58;15.13;;;;;;;13.70;88.49;100516.95;1739072;80;20953;-67
2021/11/05 06:20:59;;;;;;;23.92;16.20;;;;;;;13.71;88.40;100517.78;1690947;82;21009;-67
2021/11/05 06:23:26;;;;;;;20.23;15.28;;;;;;;13.72;88.31;100534.89;1684524;84;21817;-67
2021/11/05 06:25:54;;;;;;;22.48;16.37;;;;;;;13.74;88.23;100542.72;1687033;84;20831;-67
2021/11/05 06:28:20;;;;;;;23.15;15.63;;;;;;;13.75;88.14;100550.54;1692966;83;21063;-67
2021/11/05 06:30:47;;;;;;;19.87;15.23;;;;;;;13.77;88.08;100545.09;1701081;82;20985;-67
2021/11/05 06:33:13;;;;;;;25.72;16.05;;;;;;;13.78;88.00;100539.28;1736248;81;20929;-67
2021/11/05 06:35:40;;;;;;;20.62;15.38;;;;;;;13.78;87.90;100535.30;1775626;80;22490;-68
2021/11/05 06:38:06;;;;;;;23.73;16.00;;;;;;;13.78;87.88;100541.94;1759506;79;21017;-68
2021/11/05 06:40:34;;;;;;;21.37;15.75;;;;;;;13.79;87.80;100548.92;1768551;79;21315;-68
2021/11/05 06:43:01;;;;;;;21.30;15.68;;;;;;;13.80;87.73;100540.85;1774141;79;21031;-68
2021/11/05 06:45:29;;;;;;;22.55;14.98;;;;;;;13.81;87.66;100542.52;1777635;79;21001;-68
2021/11/05 06:47:56;;;;;;;18.25;14.50;;;;;;;13.83;87.59;100549.02;1776850;79;21802;-68
2021/11/05 06:50:22;;;;;;;18.37;14.93;;;;;;;13.85;87.52;100551.04;1776370;79;20955;-68
2021/11/05 06:52:49;;;;;;;19.02;14.58;;;;;;;13.87;87.42;100545.93;1767452;81;20994;-68
2021/11/05 06:55:15;;;;;;;18.48;14.63;;;;;;;13.87;87.35;100539.78;1763054;80;21100;-68
2021/11/05 06:57:43;;;;;;;19.07;14.68;;;;;;;13.88;87.29;100539.64;1771206;80;20966;-68
2021/11/05 07:00:11;;;;;;;19.75;15.25;;;;;;;13.89;87.21;100540.48;1736599;80;21890;-68
2021/11/05 07:02:42;;;;;;;20.00;15.50;;;;;;;13.90;87.17;100540.86;1737032;80;20941;-68
2021/11/05 07:05:11;;;;;;;19.95;15.13;;;;;;;13.91;87.12;100546.52;1752697;81;20964;-69
2021/11/05 07:07:38;;;;;;;19.75;14.80;;;;;;;13.92;87.09;100546.86;1772855;80;20996;-68
2021/11/05 07:10:06;;;;;;;21.15;16.45;;;;;;;13.92;87.06;100546.38;1781629;80;21024;-68
2021/11/05 07:12:33;;;;;;;20.25;15.05;;;;;;;13.93;87.02;100554.69;1776978;80;21817;-69
2021/11/05 07:14:59;;;;;;;22.90;16.20;;;;;;;13.93;87.03;100552.03;1665723;82;22397;-68
2021/11/05 07:17:27;;;;;;;19.05;15.08;;;;;;;13.93;87.03;100553.36;1705218;83;21040;-68
2021/11/05 07:19:54;;;;;;;22.07;14.55;;;;;;;13.95;87.01;100562.02;1748160;81;21018;-68
2021/11/05 07:22:20;;;;;;;19.73;15.15;;;;;;;13.98;86.96;100551.59;1750960;81;20968;-68
2021/11/05 07:24:46;;;;;;;22.75;15.50;;;;;;;14.00;86.92;100558.47;1782663;80;22115;-68
2021/11/05 07:27:13;;;;;;;23.60;15.65;;;;;;;14.02;86.88;100552.52;1781679;80;20845;-68
2021/11/05 07:29:42;;;;;;;21.25;15.20;;;;;;;14.04;86.88;100553.70;1783458;80;20933;-68
2021/11/05 07:32:09;;;;;;;21.05;15.13;;;;;;;14.04;86.85;100547.06;1797971;78;21012;-72
2021/11/05 07:34:37;;;;;;;21.33;15.58;;;;;;;14.05;86.86;100556.70;1774060;79;21530;-71
2021/11/05 07:37:13;;;;;;;22.32;16.05;;;;;;;14.07;86.91;100539.30;1733757;82;22200;-67
2021/11/05 07:39:34;;;;;;;21.00;16.40;;;;;;;14.07;86.90;100537.48;1725395;82;20963;-70
2021/11/05 07:42:01;;;;;;;23.83;16.50;;;;;;;14.08;86.94;100543.14;1728781;82;20937;-73
2021/11/05 07:57:22;;;;;;;23.22;15.83;;;;;;;14.55;85.99;100535.29;1858133;75;22625;-75
2021/11/05 07:59:49;;;;;;;24.10;15.80;;;;;;;14.52;85.67;100531.59;1835303;77;20987;-76
2021/11/05 08:02:16;;;;;;;21.10;14.68;;;;;;;14.48;85.50;100537.70;1829718;77;23027;-73
2021/11/05 08:04:43;;;;;;;20.08;15.85;;;;;;;14.49;85.50;100546.52;1857697;77;20944;-75
2021/11/05 08:07:10;;;;;;;20.60;15.75;;;;;;;14.47;85.41;100543.13;1782233;78;21048;-79
2021/11/05 08:09:37;;;;;;;23.85;15.83;;;;;;;14.47;85.37;100540.47;1776307;80;21012;-77
2021/11/05 08:12:05;;;;;;;23.62;16.45;;;;;;;14.45;85.26;100541.95;1777791;80;21110;-74
2021/11/05 08:14:31;;;;;;;25.00;16.17;;;;;;;14.44;85.25;100538.91;1787842;79;21774;-76
2021/11/05 08:16:58;;;;;;;23.98;15.48;;;;;;;14.43;85.21;100541.23;1771662;80;21063;-75
2021/11/05 08:19:24;;;;;;;20.25;14.80;;;;;;;14.44;85.22;100548.22;1738317;80;21000;-76
2021/11/05 08:21:52;;;;;;;21.57;15.25;;;;;;;14.44;85.18;100563.33;1794423;80;21411;-75
2021/11/05 08:24:18;;;;;;;21.02;15.32;;;;;;;14.46;85.13;100572.86;1783762;80;20933;-76
2021/11/05 08:26:45;;;;;;;19.15;14.95;;;;;;;14.46;85.13;100571.53;1764087;81;22671;-75
2021/11/05 08:29:12;;;;;;;19.87;14.50;;;;;;;14.47;85.11;100579.84;1772692;80;21399;-74
2021/11/05 08:31:38;;;;;;;22.40;15.48;;;;;;;14.48;85.05;100574.07;1777614;80;20960;-71
2021/11/05 08:34:05;;;;;;;23.18;16.52;;;;;;;14.47;84.97;100563.90;1767979;79;21000;-71
2021/11/05 08:36:31;;;;;;;21.20;14.83;;;;;;;14.48;84.97;100563.44;1772651;80;20948;-72
2021/11/05 08:38:59;;;;;;;18.90;14.28;;;;;;;14.49;84.99;100557.14;1784990;80;21831;-72
2021/11/05 08:41:25;;;;;;;22.05;15.40;;;;;;;14.50;85.01;100566.30;1784686;80;20996;-71
2021/11/05 08:43:56;;;;;;;20.52;15.55;;;;;;;14.51;84.97;100568.47;1765046;80;20965;-72
2021/11/05 08:46:28;;;;;;;21.20;15.18;;;;;;;14.53;84.93;100575.80;1733856;81;20987;-74
2021/11/05 08:48:59;;;;;;;20.12;15.38;;;;;;;14.55;84.92;100585.79;1753847;81;21000;-74
2021/11/05 08:51:26;;;;;;;20.17;15.50;;;;;;;14.57;84.96;100584.69;1772079;80;21796;-75
2021/11/05 08:53:53;;;;;;;20.92;14.05;;;;;;;14.57;84.87;100586.48;1770125;80;20990;-74
2021/11/05 08:56:20;;;;;;;22.05;16.00;;;;;;;14.58;84.84;100583.70;1747229;81;20969;-75
2021/11/05 08:58:47;;;;;;;23.67;16.82;;;;;;;14.60;84.82;100589.71;1738299;81;21074;-76
2021/11/05 09:01:15;;;;;;;20.08;15.50;;;;;;;14.63;84.78;100576.62;1737958;81;21053;-74
2021/11/05 09:03:42;;;;;;;21.00;15.95;;;;;;;14.64;84.78;100556.19;1725143;81;21824;-73
2021/11/05 09:06:09;;;;;;;20.62;15.53;;;;;;;14.65;84.75;100546.73;1748067;81;20954;-77
2021/11/05 09:08:36;;;;;;;21.57;16.77;;;;;;;14.68;84.74;100549.63;1742409;81;21498;-73
2021/11/05 09:11:04;;;;;;;20.48;15.40;;;;;;;14.70;84.72;100555.63;1742712;81;21029;-72
2021/11/05 09:13:32;;;;;;;18.80;14.65;;;;;;;14.71;84.68;100550.16;1753017;81;21041;-72
2021/11/05 09:15:59;;;;;;;18.37;14.28;;;;;;;14.74;84.64;100543.22;1739526;81;21858;-72
2021/11/05 09:18:25;;;;;;;19.75;15.13;;;;;;;14.76;84.57;100551.88;1753778;81;21045;-72
2021/11/05 09:20:52;;;;;;;21.93;14.87;;;;;;;14.77;84.46;100556.73;1752642;81;20950;-74
2021/11/05 09:23:18;;;;;;;19.67;15.32;;;;;;;14.79;84.44;100560.08;1751008;81;21030;-73
2021/11/05 09:25:45;;;;;;;21.10;15.55;;;;;;;14.81;84.44;100566.09;1767052;81;20984;-73
2021/11/05 09:28:11;;;;;;;21.10;15.18;;;;;;;14.83;84.39;100568.10;1763502;81;21836;-73
2021/11/05 09:30:38;;;;;;;22.58;16.35;;;;;;;14.86;84.36;100567.34;1736156;82;21029;-73
2021/11/05 09:33:04;;;;;;;20.10;15.18;;;;;;;14.88;84.33;100576.50;1744612;79;21071;-74
2021/11/05 09:35:31;;;;;;;22.65;15.48;;;;;;;14.91;84.27;100573.55;1727431;82;21122;-72
2021/11/05 09:37:57;;;;;;;18.27;15.40;;;;;;;14.94;84.19;100572.41;1751026;80;21507;-73
2021/11/05 09:40:26;;;;;;;21.02;16.05;;;;;;;14.95;84.13;100573.58;1710970;80;21838;-73
2021/11/05 09:42:54;;;;;;;22.10;16.60;;;;;;;14.98;84.10;100568.49;1756998;81;21480;-72
2021/11/05 09:45:21;;;;;;;21.50;16.82;;;;;;;15.01;84.06;100570.84;1750441;81;20992;-72
2021/11/05 09:47:49;;;;;;;19.12;15.40;;;;;;;15.03;83.99;100564.88;1736100;81;21029;-73
2021/11/05 09:50:19;;;;;;;23.27;16.75;;;;;;;15.04;83.89;100551.92;1758038;81;21017;-72
2021/11/05 09:52:46;;;;;;;22.17;16.42;;;;;;;15.05;83.76;100555.77;1755995;81;21796;-73
2021/11/05 09:55:16;;;;;;;23.02;16.80;;;;;;;15.07;83.72;100551.66;1726294;83;21407;-72
2021/11/05 09:57:42;;;;;;;22.30;16.85;;;;;;;15.09;83.61;100563.82;1758942;80;21362;-72
2021/11/05 10:00:12;;;;;;;22.60;16.65;;;;;;;15.13;83.50;100560.36;1758891;81;20985;-73
2021/11/05 10:02:44;;;;;;;21.33;15.50;;;;;;;15.17;83.44;100561.77;1786641;80;21000;-73
2021/11/05 10:05:11;;;;;;;21.10;16.15;;;;;;;15.22;83.42;100564.80;1790562;79;23437;-73
2021/11/05 10:07:53;;;;;;;21.60;16.62;;;;;;;15.24;83.27;100560.17;1779297;79;21616;-74
2021/11/05 10:10:41;;;;;;;23.47;16.80;;;;;;;15.27;83.17;100562.56;1760853;80;20978;-73
2021/11/05 10:13:10;;;;;;;22.58;16.45;;;;;;;15.28;82.98;100556.73;1776537;80;21052;-73
2021/11/05 10:15:46;;;;;;;23.27;16.90;;;;;;;15.31;82.96;100551.11;1783150;80;21008;-74
2021/11/05 10:18:29;;;;;;;23.75;16.80;;;;;;;15.32;82.84;100550.95;1789704;80;21047;-75
2021/11/05 10:21:14;;;;;;;22.90;16.70;;;;;;;15.35;82.74;100550.69;1778779;80;20992;-75
2021/11/05 10:23:43;;;;;;;23.65;17.32;;;;;;;15.38;82.67;100549.05;1768570;80;20952;-75
2021/11/05 10:26:22;;;;;;;24.25;17.17;;;;;;;15.38;82.46;100547.72;1776117;80;20960;-74
2021/11/05 10:28:49;;;;;;;71.92;50.25;;;;;;;15.41;82.41;100546.57;1781074;80;20985;-72
2021/11/05 10:31:17;;;;;;;27.17;19.57;;;;;;;15.42;82.31;100554.41;1792457;80;22278;-74
2021/11/05 10:33:47;;;;;;;31.52;25.60;;;;;;;15.43;82.16;100546.77;1785103;80;21008;-75
2021/11/05 10:36:19;;;;;;;35.50;31.33;;;;;;;15.45;82.11;100546.14;1790449;79;22095;-72
2021/11/05 10:38:57;;;;;;;34.87;25.90;;;;;;;15.46;81.97;100549.64;1794770;79;21023;-72
2021/11/05 10:41:26;;;;;;;68.65;52.88;;;;;;;15.48;81.95;100548.16;1772769;79;21387;-72
2021/11/05 10:43:58;;;;;;;33.30;25.55;;;;;;;15.50;81.92;100552.83;1765716;81;22523;-78
2021/11/05 10:46:40;;;;;;;23.07;18.57;;;;;;;15.50;81.87;100552.83;1771234;79;21102;-74
2021/11/05 10:49:30;;;;;;;24.55;18.30;;;;;;;15.52;81.82;100549.02;1773460;79;21075;-72
2021/11/05 10:52:18;;;;;;;25.35;17.73;;;;;;;15.51;81.76;100549.18;1765937;81;21012;-71
2021/11/05 10:54:59;;;;;;;22.25;18.50;;;;;;;15.55;81.74;100545.25;1765738;81;21039;-71
2021/11/05 10:57:42;;;;;;;29.05;18.82;;;;;;;15.55;81.65;100535.44;1745870;80;21856;-71
2021/11/05 11:00:25;;;;;;;24.25;18.67;;;;;;;15.57;81.58;100532.62;1762982;80;21011;-71
2021/11/05 11:02:52;;;;;;;28.07;20.23;;;;;;;15.59;81.52;100526.64;1773590;80;21035;-71
2021/11/05 11:05:33;;;;;;;25.95;19.15;;;;;;;15.61;81.47;100528.69;1766510;81;21406;-70
2021/11/05 11:08:01;;;;;;;27.70;20.77;;;;;;;15.61;81.44;100532.19;1766662;80;21134;-71
2021/11/05 11:10:32;;;;;;;28.35;20.95;;;;;;;15.63;81.42;100540.89;1751139;80;21104;-73
2021/11/05 11:13:00;;;;;;;27.32;20.43;;;;;;;15.67;81.34;100528.09;1717385;83;21034;-72
2021/11/05 11:15:35;;;;;;;26.10;20.40;;;;;;;15.69;81.33;100526.11;1768495;80;20992;-73
2021/11/05 11:18:04;;;;;;;26.20;20.08;;;;;;;15.69;81.31;100518.96;1730863;82;21017;-72
2021/11/05 11:20:32;;;;;;;25.10;19.55;;;;;;;15.72;81.32;100513.82;1704022;82;21550;-72
2021/11/05 11:23:01;;;;;;;25.52;20.08;;;;;;;15.73;81.36;100518.19;1730647;82;21515;-73
2021/11/05 11:25:28;;;;;;;29.87;21.48;;;;;;;15.76;81.27;100505.05;1744659;80;21048;-71